• Join FlightAware (Why Join?)
  • Login
  • US Flag 
Gobble Gobble! 
06:45PM EST


 

Airport Tracker/Info


-or-


 

Live Flight TrackerFlight Track Log ✈ N45BB ✈ 28-Dec-2013 ✈ KCEU - M33

Flight Track Log - Related Links

Times and Time Zones

All times are in EST time to prevent confusion due to time zone crossing. See the N45BB flight status page for this flight to view local times or setup timezone preferences in your user account.

Time Position Orientation Groundspeed Altitude Reporting Facility
EST Latitude Longitude Course Direction KTS MPH feet Rate Location/Type
02:47PM 34.7000 -83.0306 299° West 141 162 4,400  Level Atlanta Center
02:48PM 34.7211 -83.0683 304° West 141 162 5,200 840 Climbing Atlanta Center
02:49PM 34.7464 -83.1008 313° West 136 157 6,100 840 Climbing Atlanta Center
02:50PM 34.7656 -83.1411 300° West 136 157 6,900 840 Climbing Atlanta Center
02:51PM 34.7867 -83.1814 303° West 136 157 7,800 900 Climbing Atlanta Center
02:52PM 34.8125 -83.1626 299° West  Level Estimated
02:52PM 34.8100 -83.2217 305° West 141 162 8,800  Level Atlanta Center
02:53PM 34.8333 -83.2644 304° West 146 168 9,500 720 Climbing Atlanta Center
02:54PM 34.8628 -83.3047 312° West 156 180 10,300 900 Climbing Atlanta Center
02:55PM 34.8964 -83.3372 322° Northwest 156 180 11,300 900 Climbing Atlanta Center
02:56PM 34.9278 -83.3675 322° Northwest 151 174 12,100 840 Climbing Atlanta Center
02:57PM 34.9531 -83.4078 307° West 146 168 13,000 780 Climbing Atlanta Center
02:58PM 34.9822 -83.4353 322° Northwest 146 168 13,700 660 Climbing Atlanta Center
02:59PM 35.0117 -83.4733 313° West 146 168 14,400 600 Climbing Atlanta Center
03:00PM 35.0433 -83.5061 320° Northwest 151 174 15,000 660 Climbing Atlanta Center
03:01PM 35.0747 -83.5414 317° Northwest 151 174 15,800 660 Climbing Atlanta Center
03:02PM 35.1103 -83.5767 321° Northwest 151 174 16,400 420 Climbing Atlanta Center
03:03PM 35.1481 -83.6144 321° Northwest 156 180 16,700 600 Climbing Atlanta Center
03:04PM 35.1814 -83.6550 315° West 162 186 17,600 540 Climbing Atlanta Center
03:05PM 35.2108 -83.6931 313° West 167 192 17,800 180 Climbing Atlanta Center
03:06PM 35.2381 -83.7386 306° West 167 192 18,000 60 Climbing Atlanta Center
03:07PM 35.2653 -83.7869 305° West 167 192 18,000  Level Atlanta Center
03:08PM 35.2883 -83.8403 298° West 178 205 18,000  Level Atlanta Center
03:09PM 35.3133 -83.8936 300° West 178 205 18,000  Level Atlanta Center
03:10PM 35.3406 -83.9497 301° West 178 205 18,000  Level Atlanta Center
03:11PM 35.3656 -84.0031 300° West 178 205 18,000 -60 Level Atlanta Center
03:12PM 35.3886 -84.0567 298° West 178 205 17,900  Descending Atlanta Center
03:13PM 35.4136 -84.1100 300° West 178 205 18,000  Climbing Atlanta Center
03:14PM 35.4386 -84.1636 300° West 178 205 18,000  Level Atlanta Center
03:15PM 35.4617 -84.2172 298° West 178 205 18,000  Level Atlanta Center
03:16PM 35.4803 -84.2758 291° West 178 205 18,000  Level Atlanta Center
03:17PM 35.4947 -84.3319 288° West 178 205 18,000 -60 Level Atlanta Center
03:18PM 35.5092 -84.3858 288° West 173 199 17,900 -180 Descending Atlanta Center
03:19PM 35.5297 -84.4469 292° West 173 199 17,700 -240 Descending Atlanta Center
03:20PM 35.5567 -84.5058 299° West 184 212 17,500 -300 Descending Atlanta Center
03:21PM 35.5836 -84.5675 298° West 201 231 17,100 -420 Descending Atlanta Center
03:22PM 35.6125 -84.6236 302° West 201 231 16,700 -420 Descending Atlanta Center
03:23PM 35.6372 -84.6853 296° West 201 231 16,300 -420 Descending Atlanta Center
03:24PM 35.6642 -84.7442 299° West 201 231 15,900 -540 Descending Atlanta Center
03:25PM 35.6908 -84.8083 297° West 201 231 15,300 -600 Descending Atlanta Center
03:26PM 35.7197 -84.8700 300° West 201 231 14,700 -540 Descending Atlanta Center
03:27PM 35.7483 -84.9317 300° West 206 237 14,300 -480 Descending Atlanta Center
03:29PM 35.7931 -85.0294 299° West 201 231 13,600 -480 Descending Memphis Center
03:30PM 35.8106 -85.0908 289° West 191 220 13,200 -360 Descending Memphis Center
03:31PM 35.8242 -85.1539 285° West 189 217 12,900 -300 Descending Memphis Center
03:32PM 35.8389 -85.2144 287° West 186 214 12,600 -300 Descending Memphis Center
03:33PM 35.8550 -85.2731 289° West 182 209 12,400 -540 Descending Memphis Center
03:34PM 35.8717 -85.3364 288° West 193 222 11,500 -780 Descending Memphis Center
03:35PM 35.8958 -85.4142 291° West 202 232 10,900 -540 Descending Memphis Center
03:36PM 35.9161 -85.4767 292° West 198 228 10,400 -720 Descending Memphis Center
03:37PM 35.9322 -85.5456 286° West 205 236 9,500 -780 Descending Memphis Center
03:38PM 35.9517 -85.6156 289° West 213 245 8,900 -540 Descending Memphis Center
03:39PM 35.9708 -85.6828 289° West 210 242 8,400 -480 Descending Memphis Center
03:40PM 35.9875 -85.7528 286° West 211 243 8,000 -420 Descending Memphis Center
03:41PM 36.0092 -85.8358 288° West 212 244 7,600 -300 Descending Memphis Center
03:42PM 36.0272 -85.9019 289° West 208 239 7,400 -480 Descending Memphis Center
03:43PM 36.0467 -85.9703 289° West 208 239 6,700 -720 Descending Memphis Center
03:44PM 36.0683 -86.0397 291° West 214 246 6,000 -660 Descending Memphis Center
03:45PM 36.0867 -86.1094 288° West 213 245 5,400 -600 Descending Memphis Center
03:46PM 36.1050 -86.1778 288° West 208 239 4,800 -600 Descending Memphis Center
03:47PM 36.1125 -86.2450 278° West 199 229 4,200 -540 Descending Memphis Center
03:48PM 36.0994 -86.3094 256° West 193 222 3,700 -600 Descending Memphis Center
03:49PM 36.1181 -86.3747 289° West 197 227 3,000 -300 Descending Memphis Center
03:50PM 36.1722 -86.3778 357° North 194 223 3,100  Climbing Memphis Center
03:51PM 36.2200 -86.3750 North 196 226 3,000 -120 Descending Memphis Center